Time;durP1;ratioP1;P1;durP2;ratioP2;P2;SDS_P1;SDS_P2;PMS_P1;PMS_P2;Temp;Humidity;BMP_temperature;BMP_pressure;BME280_temperature;BME280_humidity;BME280_pressure;Samples;Min_cycle;Max_cycle;Signal;HPM_P1;HPM_P2
2023/03/30 00:01:23;;;;;;;3.97;2.67;;;14.70;99.90;;;;;;5071279;28;20282;-57
2023/03/30 00:03:53;;;;;;;2.60;2.40;;;14.70;99.90;;;;;;5067165;28;20225;-58
2023/03/30 00:06:23;;;;;;;7.40;2.93;;;14.70;99.90;;;;;;5067323;28;20212;-56
2023/03/30 00:08:57;;;;;;;3.63;2.30;;;14.70;99.90;;;;;;5062153;28;20220;-56
2023/03/30 00:11:26;;;;;;;6.03;2.40;;;14.70;99.90;;;;;;5071143;28;20270;-57
2023/03/30 00:13:56;;;;;;;7.27;2.33;;;14.70;99.90;;;;;;5067269;28;20228;-57
2023/03/30 00:16:24;;;;;;;2.63;2.43;;;14.80;99.90;;;;;;5068677;28;20245;-57
2023/03/30 00:18:53;;;;;;;4.80;2.40;;;14.70;99.90;;;;;;5071620;28;20215;-57
2023/03/30 00:21:21;;;;;;;6.23;2.73;;;14.80;99.90;;;;;;5064330;28;20221;-57
2023/03/30 00:23:51;;;;;;;4.27;2.50;;;14.80;99.90;;;;;;5069180;28;20224;-57
2023/03/30 00:26:19;;;;;;;8.03;2.30;;;14.80;99.90;;;;;;5067346;28;20220;-57
2023/03/30 00:28:47;;;;;;;6.17;2.57;;;14.80;99.90;;;;;;5069335;28;20244;-57
2023/03/30 00:31:17;;;;;;;3.93;2.17;;;14.80;99.90;;;;;;5072739;28;20224;-57
2023/03/30 00:33:45;;;;;;;3.50;2.27;;;14.80;99.90;;;;;;5069976;28;20216;-57
2023/03/30 00:36:15;;;;;;;4.53;2.20;;;14.90;99.90;;;;;;5070948;28;20250;-57
2023/03/30 00:38:47;;;;;;;4.40;2.50;;;14.70;99.90;;;;;;5072743;28;20578;-57
2023/03/30 00:41:16;;;;;;;2.97;2.63;;;14.70;99.90;;;;;;5062839;28;20564;-57
2023/03/30 00:43:58;;;;;;;2.30;2.10;;;14.70;99.90;;;;;;5070715;28;20218;-57
2023/03/30 00:46:28;;;;;;;4.20;2.40;;;14.60;99.90;;;;;;5071416;28;20193;-57
2023/03/30 00:48:58;;;;;;;3.10;2.50;;;14.50;99.90;;;;;;5063766;28;20299;-57
2023/03/30 00:51:27;;;;;;;4.30;2.50;;;14.50;99.90;;;;;;5071050;28;20547;-56
2023/03/30 00:53:59;;;;;;;3.67;2.40;;;14.40;99.90;;;;;;5070397;28;20594;-57
2023/03/30 00:56:30;;;;;;;5.20;2.30;;;14.30;99.90;;;;;;5076602;28;20219;-57
2023/03/30 00:59:01;;;;;;;2.57;2.10;;;14.20;99.90;;;;;;5084050;28;20235;-57
2023/03/30 01:01:37;;;;;;;4.97;2.43;;;14.10;99.90;;;;;;5086415;28;20192;-57
2023/03/30 01:04:08;;;;;;;4.47;2.17;;;14.00;99.90;;;;;;5093768;28;20691;-57
2023/03/30 01:06:42;;;;;;;4.33;2.50;;;13.90;99.90;;;;;;5087786;28;20224;-55
2023/03/30 01:09:11;;;;;;;2.80;2.43;;;13.90;99.90;;;;;;5087461;28;20220;-57
2023/03/30 01:11:39;;;;;;;3.17;1.93;;;13.90;99.90;;;;;;5088683;28;20219;-57
2023/03/30 01:14:11;;;;;;;5.27;2.37;;;13.80;99.90;;;;;;5086118;28;20237;-57
2023/03/30 01:16:47;;;;;;;5.20;2.53;;;13.80;99.90;;;;;;5089271;28;20217;-57
2023/03/30 01:19:47;;;;;;;3.60;2.47;;;13.70;99.90;;;;;;5100258;27;20220;-57
2023/03/30 01:22:55;;;;;;;4.90;2.40;;;13.60;99.90;;;;;;5092176;28;20211;-57
2023/03/30 01:25:56;;;;;;;3.73;2.47;;;13.60;99.90;;;;;;5081126;28;20265;-58
2023/03/30 01:28:36;;;;;;;3.13;1.87;;;13.70;99.90;;;;;;5084760;28;20215;-57
2023/03/30 01:31:17;;;;;;;2.60;2.40;;;13.60;99.90;;;;;;5088749;28;20626;-55
2023/03/30 01:34:23;;;;;;;5.97;2.30;;;13.60;99.90;;;;;;5081989;28;20212;-57
2023/03/30 01:37:27;;;;;;;2.40;2.20;;;13.50;99.90;;;;;;5088110;28;20222;-57
2023/03/30 01:40:08;;;;;;;8.60;2.83;;;13.40;99.90;;;;;;5070939;28;20219;-57
2023/03/30 01:42:42;;;;;;;5.43;2.27;;;13.30;99.90;;;;;;5090966;28;20242;-57
2023/03/30 01:45:15;;;;;;;6.10;2.27;;;13.30;99.90;;;;;;5085955;28;20211;-57
2023/03/30 01:47:52;;;;;;;2.40;2.20;;;13.30;99.90;;;;;;5092839;28;20225;-57
2023/03/30 01:50:25;;;;;;;4.53;2.10;;;13.20;99.90;;;;;;5088003;28;20255;-57
2023/03/30 01:52:59;;;;;;;2.43;2.13;;;13.30;99.90;;;;;;5088540;28;20277;-57
2023/03/30 01:55:33;;;;;;;5.03;2.07;;;13.30;99.90;;;;;;5088448;28;20249;-57
2023/03/30 01:58:05;;;;;;;4.23;2.40;;;13.30;99.90;;;;;;5084844;28;20248;-56
2023/03/30 02:00:36;;;;;;;4.47;2.07;;;13.40;99.90;;;;;;5081675;28;20253;-58
2023/03/30 02:03:09;;;;;;;5.60;2.03;;;13.60;99.90;;;;;;5087253;28;20219;-57
2023/03/30 02:05:39;;;;;;;4.93;2.00;;;13.80;99.90;;;;;;5089142;28;20215;-57
2023/03/30 02:08:12;;;;;;;3.50;2.07;;;13.80;99.90;;;;;;5084452;28;20231;-57
2023/03/30 02:10:44;;;;;;;4.07;1.80;;;13.80;99.90;;;;;;5082788;28;20747;-57
2023/03/30 02:13:14;;;;;;;3.80;2.07;;;14.00;99.90;;;;;;5082531;28;20199;-57
2023/03/30 02:15:45;;;;;;;3.93;2.00;;;14.00;99.90;;;;;;5080266;28;20215;-57
2023/03/30 02:18:13;;;;;;;5.20;2.23;;;14.00;99.90;;;;;;5088214;28;20233;-54
2023/03/30 02:20:42;;;;;;;4.50;1.90;;;13.90;99.90;;;;;;5085856;28;20300;-56
2023/03/30 02:23:10;;;;;;;5.67;2.10;;;14.00;99.90;;;;;;5090513;28;20640;-55
2023/03/30 02:25:39;;;;;;;3.93;1.63;;;14.20;99.90;;;;;;5079565;28;20196;-56
2023/03/30 02:28:09;;;;;;;4.10;1.90;;;14.30;99.90;;;;;;5091485;28;20225;-57
2023/03/30 02:30:43;;;;;;;1.80;1.70;;;14.40;99.90;;;;;;5089556;28;20311;-56
2023/03/30 02:33:22;;;;;;;2.23;1.97;;;14.50;99.90;;;;;;5085269;28;20685;-55
2023/03/30 02:36:08;;;;;;;2.33;1.80;;;14.50;99.90;;;;;;5087587;28;20688;-56
2023/03/30 02:39:05;;;;;;;5.97;2.10;;;14.50;99.90;;;;;;5090978;28;20757;-57
2023/03/30 02:41:49;;;;;;;4.10;1.87;;;14.60;99.90;;;;;;5087181;28;20211;-57
2023/03/30 02:44:28;;;;;;;2.30;1.93;;;14.60;99.90;;;;;;5083459;28;20211;-57
2023/03/30 02:47:07;;;;;;;5.73;1.87;;;14.70;99.90;;;;;;5086878;28;20918;-57
2023/03/30 02:49:52;;;;;;;9.73;1.97;;;14.70;99.90;;;;;;5084039;28;20183;-57
2023/03/30 02:52:38;;;;;;;2.80;1.83;;;14.60;99.90;;;;;;5086284;28;20203;-56
2023/03/30 02:55:15;;;;;;;3.10;1.83;;;14.60;99.90;;;;;;5086615;28;20252;-57
2023/03/30 02:57:52;;;;;;;2.97;2.17;;;14.50;99.90;;;;;;5085184;28;20216;-57
2023/03/30 03:00:28;;;;;;;8.03;2.00;;;14.40;99.90;;;;;;5089750;28;20218;-57
2023/03/30 03:03:00;;;;;;;1.93;1.83;;;14.40;99.90;;;;;;5087028;28;20215;-57
2023/03/30 03:05:31;;;;;;;3.03;1.90;;;14.30;99.90;;;;;;5090502;28;20211;-57
2023/03/30 03:08:00;;;;;;;2.33;2.03;;;14.30;99.90;;;;;;5081035;27;20215;-57
2023/03/30 03:10:29;;;;;;;3.03;1.70;;;14.30;99.90;;;;;;5088846;28;20195;-57
2023/03/30 03:12:57;;;;;;;3.57;1.93;;;14.30;99.90;;;;;;5089004;28;20268;-57
2023/03/30 03:15:27;;;;;;;4.20;1.83;;;14.20;99.90;;;;;;5085387;28;20222;-57
2023/03/30 03:17:57;;;;;;;3.73;1.80;;;14.10;99.90;;;;;;5084538;28;20281;-56
2023/03/30 03:20:29;;;;;;;11.63;1.97;;;14.10;99.90;;;;;;5090392;28;20225;-56
2023/03/30 03:22:57;;;;;;;4.40;2.50;;;14.10;99.90;;;;;;5086689;28;20219;-57
2023/03/30 03:25:25;;;;;;;2.27;1.87;;;14.00;99.90;;;;;;5084476;28;20216;-57
2023/03/30 03:27:54;;;;;;;3.67;2.00;;;13.90;99.90;;;;;;5088345;28;20218;-55
2023/03/30 03:30:22;;;;;;;3.10;1.97;;;13.90;99.90;;;;;;5066962;28;20286;-57
2023/03/30 03:32:51;;;;;;;2.70;1.90;;;13.90;99.90;;;;;;5068421;28;20216;-56
2023/03/30 03:35:20;;;;;;;8.77;1.90;;;13.90;99.90;;;;;;5065894;28;20224;-57
2023/03/30 03:37:49;;;;;;;2.63;2.07;;;13.90;99.90;;;;;;5069347;28;20192;-57
2023/03/30 03:40:17;;;;;;;3.43;1.70;;;13.80;99.90;;;;;;5068992;28;20250;-56
2023/03/30 03:42:45;;;;;;;3.67;2.10;;;13.80;99.90;;;;;;5065046;28;20223;-57
2023/03/30 03:45:14;;;;;;;4.30;1.83;;;13.80;99.90;;;;;;5069015;28;20255;-57
2023/03/30 03:47:42;;;;;;;2.00;1.80;;;13.70;99.90;;;;;;5067624;28;20220;-57
2023/03/30 03:50:12;;;;;;;2.80;1.80;;;13.70;99.90;;;;;;5064235;28;20220;-56
2023/03/30 03:52:40;;;;;;;4.77;1.93;;;13.70;99.90;;;;;;5058962;28;20189;-57
2023/03/30 03:55:09;;;;;;;4.30;2.10;;;13.80;99.90;;;;;;5068281;28;20224;-57
2023/03/30 03:57:37;;;;;;;3.47;1.90;;;13.80;99.90;;;;;;5072051;28;20574;-57
2023/03/30 04:00:14;;;;;;;4.63;1.90;;;13.80;99.90;;;;;;5073223;28;20240;-57
2023/03/30 04:02:43;;;;;;;3.67;1.80;;;13.80;99.90;;;;;;5070192;28;20212;-56
2023/03/30 04:05:13;;;;;;;6.07;2.00;;;13.80;99.90;;;;;;5071108;28;21025;-56
2023/03/30 04:07:45;;;;;;;5.67;1.80;;;13.80;99.90;;;;;;5066479;28;20195;-57
2023/03/30 04:10:14;;;;;;;3.13;1.90;;;13.80;99.90;;;;;;5066264;28;20223;-57
2023/03/30 04:12:42;;;;;;;8.77;2.03;;;13.80;99.90;;;;;;5070789;28;20232;-57
2023/03/30 04:15:11;;;;;;;3.40;1.97;;;13.80;99.90;;;;;;5067902;28;20224;-55
2023/03/30 04:17:39;;;;;;;7.57;2.37;;;13.70;99.90;;;;;;5070371;28;20261;-56
2023/03/30 04:20:10;;;;;;;4.83;2.23;;;13.60;99.90;;;;;;5074057;28;20235;-57
2023/03/30 04:22:41;;;;;;;7.33;2.07;;;13.60;99.90;;;;;;5090968;28;20294;-57
2023/03/30 04:25:13;;;;;;;2.00;1.80;;;13.50;99.90;;;;;;5071775;28;20191;-57
2023/03/30 04:27:42;;;;;;;6.07;2.20;;;13.40;99.90;;;;;;5070197;28;20223;-57
2023/03/30 04:30:12;;;;;;;4.47;2.47;;;13.40;99.90;;;;;;5066498;28;20796;-57
2023/03/30 04:32:40;;;;;;;4.63;2.60;;;13.30;99.90;;;;;;5067896;28;20261;-55
2023/03/30 04:35:09;;;;;;;2.40;2.20;;;13.10;99.90;;;;;;5069559;28;20224;-57
2023/03/30 04:37:40;;;;;;;3.23;2.10;;;12.90;99.90;;;;;;5070240;28;20211;-56
2023/03/30 04:40:15;;;;;;;3.33;2.27;;;12.80;99.90;;;;;;5092451;28;20564;-57
2023/03/30 04:42:48;;;;;;;7.73;2.60;;;12.60;99.90;;;;;;5093413;28;20225;-57
2023/03/30 04:45:18;;;;;;;7.23;2.60;;;12.60;99.90;;;;;;5085993;28;20223;-57
2023/03/30 04:47:46;;;;;;;7.73;2.43;;;12.50;99.90;;;;;;5093909;28;20242;-57
2023/03/30 04:50:15;;;;;;;4.20;2.50;;;12.40;99.90;;;;;;5096534;28;20255;-57
2023/03/30 04:52:43;;;;;;;7.07;2.40;;;12.40;99.90;;;;;;5088448;28;20203;-57
2023/03/30 04:55:13;;;;;;;4.97;2.40;;;12.30;99.90;;;;;;5087643;28;20195;-57
2023/03/30 04:57:41;;;;;;;3.63;2.43;;;12.30;99.90;;;;;;5086048;28;20623;-57
2023/03/30 05:00:11;;;;;;;5.13;3.07;;;12.40;99.90;;;;;;5092578;28;20239;-57
2023/03/30 05:02:39;;;;;;;2.33;2.20;;;12.40;99.90;;;;;;5087154;28;20786;-56
2023/03/30 05:05:08;;;;;;;4.83;2.50;;;12.40;99.90;;;;;;5083297;28;20234;-57
2023/03/30 05:07:36;;;;;;;3.67;2.30;;;12.30;99.90;;;;;;5088995;28;20187;-57
2023/03/30 05:10:05;;;;;;;5.43;2.70;;;12.30;99.90;;;;;;5082319;28;20224;-57
2023/03/30 05:12:35;;;;;;;4.83;2.47;;;12.30;99.90;;;;;;5090891;28;20227;-56
2023/03/30 05:15:04;;;;;;;4.40;2.20;;;12.30;99.90;;;;;;5089498;28;20674;-56
2023/03/30 05:17:33;;;;;;;3.20;2.60;;;12.20;99.90;;;;;;5080503;28;20285;-57
2023/03/30 05:20:07;;;;;;;8.53;2.57;;;12.20;99.90;;;;;;5083521;28;20583;-57
2023/03/30 05:22:36;;;;;;;2.70;2.43;;;12.10;99.90;;;;;;5083259;28;20191;-55
2023/03/30 05:25:04;;;;;;;7.10;2.77;;;12.10;99.90;;;;;;5089860;28;20248;-57
2023/03/30 05:27:34;;;;;;;5.37;2.53;;;12.10;99.90;;;;;;5084955;28;20246;-57
2023/03/30 05:30:03;;;;;;;3.20;2.50;;;12.10;99.90;;;;;;5086553;28;20223;-57
2023/03/30 05:32:31;;;;;;;4.30;2.67;;;12.10;99.90;;;;;;5092551;28;20277;-57
2023/03/30 05:35:00;;;;;;;5.53;2.60;;;12.10;99.90;;;;;;5085301;28;20254;-56
2023/03/30 05:37:28;;;;;;;6.80;2.50;;;12.00;99.90;;;;;;5093594;28;20195;-58
2023/03/30 05:39:56;;;;;;;7.33;2.70;;;11.90;99.90;;;;;;5093083;28;20215;-57
2023/03/30 05:42:25;;;;;;;7.27;2.80;;;11.90;99.90;;;;;;5090020;28;20216;-57
2023/03/30 05:44:55;;;;;;;8.47;2.80;;;11.80;99.90;;;;;;5085100;28;20227;-57
2023/03/30 05:47:23;;;;;;;10.57;2.77;;;11.90;99.90;;;;;;5089636;27;20223;-57
2023/03/30 05:49:51;;;;;;;10.33;2.70;;;11.90;99.90;;;;;;5090783;28;20256;-57
2023/03/30 05:52:21;;;;;;;6.97;2.60;;;11.90;99.90;;;;;;5092415;28;20260;-57
2023/03/30 05:54:49;;;;;;;6.47;2.50;;;11.90;99.90;;;;;;5090311;28;20233;-56
2023/03/30 05:57:17;;;;;;;8.90;3.10;;;11.90;99.90;;;;;;5090304;28;20307;-57
2023/03/30 05:59:46;;;;;;;11.90;3.00;;;12.00;99.90;;;;;;5074614;28;20221;-57
2023/03/30 06:02:16;;;;;;;10.23;2.70;;;12.10;99.90;;;;;;5071141;28;20227;-57
2023/03/30 06:04:44;;;;;;;10.30;2.60;;;12.10;99.90;;;;;;5062914;28;20196;-57
2023/03/30 06:07:13;;;;;;;7.87;2.80;;;12.20;99.90;;;;;;5069051;28;20207;-57
2023/03/30 06:09:42;;;;;;;13.03;2.73;;;12.20;99.90;;;;;;5080341;28;20231;-57
2023/03/30 06:12:10;;;;;;;12.47;3.03;;;12.20;99.90;;;;;;5065608;28;20212;-57
2023/03/30 06:14:38;;;;;;;12.77;3.27;;;12.20;99.90;;;;;;5062711;28;20212;-57
2023/03/30 06:17:07;;;;;;;13.00;3.00;;;12.20;99.90;;;;;;5068242;28;20258;-57
2023/03/30 06:19:37;;;;;;;11.90;3.10;;;12.20;99.90;;;;;;5064006;28;20243;-55
2023/03/30 06:22:06;;;;;;;15.37;3.13;;;12.10;99.90;;;;;;5070183;28;20202;-57
2023/03/30 06:24:34;;;;;;;13.87;3.00;;;12.10;99.90;;;;;;5067075;28;20225;-57
2023/03/30 06:27:02;;;;;;;18.00;3.50;;;12.10;99.90;;;;;;5070410;28;20219;-56
2023/03/30 06:29:31;;;;;;;14.93;3.07;;;12.30;99.90;;;;;;5068720;27;20243;-55
2023/03/30 06:32:00;;;;;;;10.63;2.80;;;12.40;99.90;;;;;;5065963;28;20237;-57
2023/03/30 06:34:28;;;;;;;10.40;2.87;;;12.60;99.90;;;;;;5061093;28;20195;-57
2023/03/30 06:36:58;;;;;;;16.57;3.27;;;12.90;99.90;;;;;;5081968;28;20211;-57
2023/03/30 06:39:26;;;;;;;12.53;2.80;;;13.10;99.90;;;;;;5070693;28;20220;-57
2023/03/30 06:41:55;;;;;;;11.23;2.77;;;13.40;99.90;;;;;;5070319;28;20249;-57
2023/03/30 06:44:23;;;;;;;10.57;2.70;;;13.80;99.90;;;;;;5065877;28;20289;-57
2023/03/30 06:46:52;;;;;;;12.47;3.47;;;14.10;99.90;;;;;;5067809;28;20223;-57
2023/03/30 06:49:20;;;;;;;10.13;2.80;;;14.40;99.90;;;;;;5070297;28;20192;-57
2023/03/30 06:51:48;;;;;;;12.63;3.00;;;14.40;99.90;;;;;;5064030;28;20223;-57
2023/03/30 06:54:19;;;;;;;11.33;3.17;;;14.60;99.90;;;;;;5065120;28;20221;-57
2023/03/30 06:56:48;;;;;;;13.63;3.10;;;14.70;99.90;;;;;;5067532;28;20209;-57
2023/03/30 06:59:17;;;;;;;13.10;3.03;;;14.50;99.90;;;;;;5070763;28;20274;-57
2023/03/30 07:01:45;;;;;;;13.63;3.30;;;14.30;99.90;;;;;;5062615;28;20196;-57
2023/03/30 07:04:13;;;;;;;16.23;3.37;;;14.10;99.90;;;;;;5067483;28;20682;-57
2023/03/30 07:06:42;;;;;;;13.13;3.40;;;13.80;99.90;;;;;;5069867;28;20227;-57
2023/03/30 07:09:11;;;;;;;12.07;3.43;;;13.70;99.90;;;;;;5067707;28;20243;-57
2023/03/30 07:11:41;;;;;;;18.67;3.73;;;13.70;99.90;;;;;;5063284;28;20216;-57
2023/03/30 07:14:11;;;;;;;15.73;2.80;;;13.70;99.90;;;;;;5062782;28;20632;-57
2023/03/30 07:16:40;;;;;;;16.03;3.33;;;14.00;99.90;;;;;;5069545;28;20238;-57
2023/03/30 07:19:09;;;;;;;13.90;3.47;;;14.30;99.90;;;;;;5074804;28;20228;-57
2023/03/30 07:21:37;;;;;;;16.77;3.43;;;14.60;99.90;;;;;;5068021;28;20212;-57
2023/03/30 07:24:07;;;;;;;21.97;4.03;;;14.90;99.90;;;;;;5067486;28;20220;-57
2023/03/30 07:26:35;;;;;;;16.23;3.57;;;15.10;99.90;;;;;;5065627;28;20228;-57
2023/03/30 07:29:05;;;;;;;17.10;3.80;;;15.00;99.90;;;;;;5065020;28;20328;-57
2023/03/30 07:31:33;;;;;;;15.10;3.10;;;14.80;99.90;;;;;;5065416;28;20227;-57
2023/03/30 07:34:03;;;;;;;16.13;3.27;;;14.80;99.90;;;;;;5076415;28;20632;-57
2023/03/30 07:36:31;;;;;;;14.13;3.07;;;14.70;99.90;;;;;;5071568;28;20304;-57
2023/03/30 07:39:00;;;;;;;17.37;3.27;;;14.50;99.90;;;;;;5072987;28;20223;-57
2023/03/30 07:41:28;;;;;;;15.87;3.33;;;14.30;99.90;;;;;;5067742;28;20216;-57
2023/03/30 07:43:56;;;;;;;23.77;4.10;;;14.20;99.90;;;;;;5066990;28;20215;-58
2023/03/30 07:46:26;;;;;;;16.27;3.63;;;14.10;99.90;;;;;;5059738;28;20199;-57
2023/03/30 07:48:55;;;;;;;16.50;3.43;;;14.00;99.90;;;;;;5067452;28;20261;-58
2023/03/30 07:51:23;;;;;;;19.87;3.57;;;13.90;99.90;;;;;;5072450;28;20223;-57
2023/03/30 07:53:55;;;;;;;22.77;3.83;;;13.80;99.90;;;;;;5077405;28;20227;-57
2023/03/30 07:56:23;;;;;;;19.87;3.97;;;13.80;99.90;;;;;;5070222;28;20259;-58
2023/03/30 07:58:51;;;;;;;20.57;3.73;;;13.80;99.90;;;;;;5069404;28;20224;-55
2023/03/30 08:01:20;;;;;;;19.10;4.10;;;13.90;99.90;;;;;;5067285;28;20325;-57
2023/03/30 08:03:49;;;;;;;16.67;3.87;;;14.00;99.90;;;;;;5072888;28;20219;-57
2023/03/30 08:06:18;;;;;;;22.20;3.90;;;14.10;99.90;;;;;;5065745;28;21048;-58
2023/03/30 08:08:46;;;;;;;21.87;3.80;;;14.00;99.90;;;;;;5076266;28;20228;-57
2023/03/30 08:11:15;;;;;;;21.60;3.90;;;14.00;99.90;;;;;;5070016;28;20215;-57
2023/03/30 08:13:43;;;;;;;19.60;3.70;;;14.10;99.90;;;;;;5077219;28;20203;-57
2023/03/30 08:16:11;;;;;;;16.43;3.50;;;14.40;99.90;;;;;;5074029;28;20184;-58
2023/03/30 08:18:41;;;;;;;20.67;3.67;;;15.00;99.90;;;;;;5068027;28;20553;-57
2023/03/30 08:21:11;;;;;;;22.03;3.80;;;15.40;99.90;;;;;;5073230;28;20266;-57
2023/03/30 08:23:39;;;;;;;16.03;3.63;;;16.40;99.90;;;;;;5072798;28;20226;-58
2023/03/30 08:26:07;;;;;;;18.00;3.60;;;17.50;99.90;;;;;;5073329;28;20309;-58
2023/03/30 08:28:36;;;;;;;18.23;3.97;;;18.30;99.90;;;;;;5063020;28;20239;-58
2023/03/30 08:31:05;;;;;;;19.37;3.37;;;19.00;99.90;;;;;;5074636;28;20710;-57
2023/03/30 08:33:35;;;;;;;18.93;3.70;;;19.10;99.90;;;;;;5065538;28;20236;-58
2023/03/30 08:36:03;;;;;;;16.40;4.03;;;19.20;99.90;;;;;;5070444;28;20223;-58
2023/03/30 08:38:33;;;;;;;15.60;3.40;;;19.20;99.90;;;;;;5071744;28;21476;-58
2023/03/30 08:41:01;;;;;;;19.80;3.50;;;18.80;99.90;;;;;;5070082;28;20815;-58
2023/03/30 08:43:52;;;;;;;23.53;3.60;;;17.90;99.90;;;;;;5068177;28;20596;-56
2023/03/30 08:46:21;;;;;;;17.03;3.40;;;17.90;99.90;;;;;;5070796;28;20271;-58
2023/03/30 08:48:51;;;;;;;17.27;3.73;;;18.40;99.90;;;;;;5073551;28;20254;-58
2023/03/30 08:51:23;;;;;;;18.50;3.90;;;18.70;99.90;;;;;;5064822;28;20620;-58
2023/03/30 08:53:56;;;;;;;19.13;3.90;;;18.10;99.90;;;;;;5072639;28;20249;-58
2023/03/30 08:56:31;;;;;;;17.77;3.43;;;17.30;99.90;;;;;;5070024;28;21403;-58
2023/03/30 08:59:10;;;;;;;18.57;3.87;;;16.90;99.90;;;;;;5077763;28;20220;-57
2023/03/30 09:01:47;;;;;;;14.20;3.30;;;16.40;99.90;;;;;;5073175;28;20188;-58
2023/03/30 09:04:23;;;;;;;16.50;3.60;;;16.20;99.90;;;;;;5066912;28;20187;-57
2023/03/30 09:06:57;;;;;;;16.83;3.57;;;16.60;99.90;;;;;;5070515;28;20218;-57
2023/03/30 09:09:30;;;;;;;17.73;3.57;;;16.90;99.90;;;;;;5071377;28;20235;-58
2023/03/30 09:12:05;;;;;;;17.67;3.83;;;17.20;99.90;;;;;;5071485;28;20232;-58
2023/03/30 09:14:37;;;;;;;15.57;3.77;;;17.00;99.90;;;;;;5071290;28;20223;-58
2023/03/30 09:17:10;;;;;;;15.00;3.57;;;16.60;99.90;;;;;;5073249;28;20220;-57
2023/03/30 09:19:47;;;;;;;10.17;3.13;;;16.10;99.90;;;;;;5077283;28;20831;-58
2023/03/30 09:22:17;;;;;;;18.43;3.37;;;15.70;99.90;;;;;;5064533;28;20730;-57
2023/03/30 09:24:47;;;;;;;11.73;3.20;;;15.20;99.90;;;;;;5069895;28;20223;-58
2023/03/30 09:27:19;;;;;;;17.70;3.27;;;14.70;99.90;;;;;;5062277;28;20305;-57
2023/03/30 09:29:50;;;;;;;17.93;3.30;;;14.30;99.90;;;;;;5064250;28;20674;-57
2023/03/30 09:32:29;;;;;;;18.40;3.67;;;14.50;99.90;;;;;;5067153;28;20220;-58
2023/03/30 09:35:02;;;;;;;15.53;3.20;;;15.50;99.90;;;;;;5063119;28;20231;-58
2023/03/30 09:37:31;;;;;;;12.77;3.33;;;15.80;99.90;;;;;;5060991;28;20521;-56
2023/03/30 09:40:10;;;;;;;12.50;2.90;;;16.00;99.90;;;;;;5067188;28;20236;-58
2023/03/30 09:42:47;;;;;;;10.00;2.73;;;16.50;99.90;;;;;;5067779;28;20208;-57
2023/03/30 09:45:22;;;;;;;15.40;3.23;;;16.60;99.90;;;;;;5068379;28;20223;-58
2023/03/30 09:47:50;;;;;;;15.90;3.57;;;16.40;99.90;;;;;;5075040;28;20616;-58
2023/03/30 09:50:22;;;;;;;5.60;2.07;;;16.20;99.90;;;;;;5071101;28;20230;-58
2023/03/30 09:52:57;;;;;;;6.13;2.03;;;16.30;99.90;;;;;;5069156;28;20230;-58
2023/03/30 09:55:29;;;;;;;8.10;2.10;;;16.40;99.90;;;;;;5071931;28;20203;-57
2023/03/30 09:58:12;;;;;;;8.90;2.47;;;16.70;99.90;;;;;;5088588;28;20217;-58
2023/03/30 10:00:41;;;;;;;6.77;2.50;;;17.60;99.90;;;;;;5070057;28;20247;-58
2023/03/30 10:03:20;;;;;;;8.33;2.10;;;18.20;99.90;;;;;;5071718;28;20223;-58
2023/03/30 10:06:04;;;;;;;10.03;2.60;;;18.20;99.90;;;;;;5079460;28;20222;-58
2023/03/30 10:08:36;;;;;;;9.87;2.80;;;17.60;99.90;;;;;;5090393;28;20223;-58
2023/03/30 10:11:06;;;;;;;8.43;2.47;;;17.20;99.90;;;;;;5091490;28;20652;-57
2023/03/30 10:13:38;;;;;;;14.00;2.67;;;17.00;99.90;;;;;;5084903;28;20237;-57
2023/03/30 10:16:12;;;;;;;12.83;2.90;;;16.60;99.90;;;;;;5070423;28;20210;-57
2023/03/30 10:18:45;;;;;;;11.47;3.00;;;16.10;99.90;;;;;;5073356;28;20218;-58
2023/03/30 10:21:21;;;;;;;10.47;2.57;;;15.70;99.90;;;;;;5067570;28;20224;-58
2023/03/30 10:24:01;;;;;;;9.47;2.47;;;15.20;99.90;;;;;;5071139;28;20212;-57
2023/03/30 10:26:33;;;;;;;14.07;3.53;;;15.00;99.90;;;;;;5066796;28;20212;-58
2023/03/30 10:29:03;;;;;;;16.17;3.50;;;15.80;99.90;;;;;;5068642;28;20225;-58
2023/03/30 10:31:35;;;;;;;10.47;3.20;;;16.70;99.90;;;;;;5065069;28;20199;-57
2023/03/30 10:34:06;;;;;;;11.77;2.87;;;17.10;99.90;;;;;;5070125;28;20623;-58
2023/03/30 10:36:39;;;;;;;9.63;3.00;;;17.20;99.90;;;;;;5066164;28;20215;-57
2023/03/30 10:39:13;;;;;;;20.03;3.40;;;17.00;99.90;;;;;;5068906;28;20247;-57
2023/03/30 10:41:46;;;;;;;11.63;2.90;;;16.70;99.90;;;;;;5074125;28;20634;-57
2023/03/30 10:44:27;;;;;;;18.23;3.60;;;16.80;99.90;;;;;;5074305;28;20216;-58
2023/03/30 10:47:16;;;;;;;10.70;3.07;;;17.80;99.90;;;;;;5065805;28;20223;-58
2023/03/30 10:49:55;;;;;;;17.07;3.30;;;18.50;99.90;;;;;;5067995;28;20227;-58
2023/03/30 10:52:31;;;;;;;13.17;3.03;;;18.20;99.90;;;;;;5074872;28;20254;-58
2023/03/30 10:55:07;;;;;;;11.60;3.30;;;17.80;99.90;;;;;;5060515;28;20219;-59
2023/03/30 10:57:45;;;;;;;19.57;3.50;;;17.70;99.90;;;;;;5066903;28;20219;-58
2023/03/30 11:00:25;;;;;;;11.17;3.13;;;17.70;99.90;;;;;;5064028;28;20216;-58
2023/03/30 11:03:04;;;;;;;15.07;3.43;;;17.50;99.90;;;;;;5067697;28;20261;-58
2023/03/30 11:05:35;;;;;;;17.67;3.83;;;17.40;99.90;;;;;;5075285;28;20219;-58
2023/03/30 11:08:06;;;;;;;14.40;3.10;;;17.50;99.90;;;;;;5073812;28;20256;-57
2023/03/30 11:10:38;;;;;;;14.70;2.87;;;17.90;99.90;;;;;;5071119;28;20211;-57
2023/03/30 11:13:15;;;;;;;12.23;3.30;;;18.70;99.90;;;;;;5072793;28;20206;-58
2023/03/30 11:15:49;;;;;;;18.13;3.60;;;19.20;99.90;;;;;;5070569;28;20227;-58
2023/03/30 11:18:21;;;;;;;10.67;3.20;;;18.80;99.90;;;;;;5073344;28;20284;-58
2023/03/30 11:20:56;;;;;;;12.40;3.07;;;18.70;99.90;;;;;;5075121;28;20238;-58
2023/03/30 11:23:36;;;;;;;12.83;3.30;;;19.20;99.90;;;;;;5068840;28;20208;-59
2023/03/30 11:26:07;;;;;;;16.90;3.43;;;20.10;99.90;;;;;;5066127;28;20220;-58
2023/03/30 11:28:57;;;;;;;11.97;3.23;;;20.00;99.90;;;;;;5074571;28;20195;-59
2023/03/30 11:31:43;;;;;;;16.73;3.77;;;19.10;99.90;;;;;;5068945;28;20192;-58
2023/03/30 11:34:19;;;;;;;14.07;3.60;;;18.20;99.90;;;;;;5089412;28;20294;-58
2023/03/30 11:36:57;;;;;;;16.50;3.47;;;17.90;99.90;;;;;;5089574;28;20214;-59
2023/03/30 11:39:30;;;;;;;12.90;2.80;;;18.10;99.90;;;;;;5087867;28;20215;-58
2023/03/30 11:42:09;;;;;;;17.10;3.40;;;18.90;99.90;;;;;;5094004;28;20215;-59
2023/03/30 11:44:39;;;;;;;9.83;3.10;;;19.60;99.90;;;;;;5095229;28;20555;-58
2023/03/30 11:47:25;;;;;;;10.27;3.33;;;19.90;99.90;;;;;;5083432;28;20227;-59
2023/03/30 11:50:08;;;;;;;12.37;3.77;;;19.70;99.90;;;;;;5075061;28;20689;-59
2023/03/30 11:52:44;;;;;;;12.93;3.40;;;19.90;99.90;;;;;;5070929;28;20212;-58
2023/03/30 11:55:27;;;;;;;10.07;3.20;;;19.80;99.90;;;;;;5072068;28;20264;-59
2023/03/30 11:58:06;;;;;;;13.80;3.13;;;20.00;99.90;;;;;;5088923;28;20211;-59
2023/03/30 12:00:49;;;;;;;12.20;3.40;;;20.20;99.90;;;;;;5090800;28;20219;-59
2023/03/30 12:03:35;;;;;;;15.33;3.27;;;19.70;99.90;;;;;;5087202;28;20786;-58
2023/03/30 12:06:27;;;;;;;14.70;3.43;;;19.20;99.90;;;;;;5090369;28;20556;-57
2023/03/30 12:09:23;;;;;;;13.43;2.77;;;18.90;99.90;;;;;;5093563;28;20227;-59
2023/03/30 12:12:02;;;;;;;11.10;2.87;;;18.90;99.90;;;;;;5071541;28;20712;-58
2023/03/30 12:14:53;;;;;;;13.00;3.47;;;19.50;99.90;;;;;;5092041;28;20218;-59
2023/03/30 12:17:37;;;;;;;12.43;3.03;;;19.30;99.90;;;;;;5083428;28;20231;-58
2023/03/30 12:20:15;;;;;;;12.63;2.80;;;19.10;99.90;;;;;;5089019;28;20235;-59
2023/03/30 12:22:49;;;;;;;12.30;3.10;;;19.00;99.90;;;;;;5084461;28;20229;-58
2023/03/30 12:25:28;;;;;;;14.70;3.30;;;19.10;99.90;;;;;;5084606;28;20188;-58
2023/03/30 12:28:05;;;;;;;11.30;2.67;;;18.70;99.90;;;;;;5091232;28;20272;-58
2023/03/30 12:30:43;;;;;;;12.37;2.80;;;18.30;99.90;;;;;;5092212;28;20622;-58
2023/03/30 12:33:18;;;;;;;11.33;3.23;;;18.30;99.90;;;;;;5089041;28;20221;-59
2023/03/30 12:35:58;;;;;;;12.50;3.13;;;18.30;99.90;;;;;;5081679;28;20216;-59
2023/03/30 12:38:36;;;;;;;16.57;3.50;;;18.10;99.90;;;;;;5073958;28;20227;-59
2023/03/30 12:41:19;;;;;;;7.60;2.70;;;17.80;99.90;;;;;;5071828;28;20229;-58
2023/03/30 12:44:24;;;;;;;13.90;3.17;;;17.70;99.90;;;;;;5071748;28;20184;-58
2023/03/30 12:47:04;;;;;;;10.17;3.30;;;17.60;99.90;;;;;;5074364;28;20234;-58
2023/03/30 12:49:50;;;;;;;20.70;3.13;;;17.50;99.90;;;;;;5068198;28;20873;-58
2023/03/30 12:52:32;;;;;;;16.20;3.50;;;17.50;99.90;;;;;;5073006;28;20188;-58
2023/03/30 12:55:12;;;;;;;17.10;3.07;;;17.70;99.90;;;;;;5072591;28;20252;-58
2023/03/30 12:57:59;;;;;;;11.70;3.20;;;17.70;99.90;;;;;;5082914;28;20347;-58
2023/03/30 13:01:03;;;;;;;11.90;3.03;;;17.90;99.90;;;;;;5089160;28;20807;-58
2023/03/30 13:03:40;;;;;;;15.87;3.30;;;18.10;99.90;;;;;;5078230;28;20224;-58
2023/03/30 13:06:20;;;;;;;16.43;3.70;;;18.00;99.90;;;;;;5086590;28;20218;-58
2023/03/30 13:08:54;;;;;;;8.33;2.90;;;17.80;99.90;;;;;;5092041;28;20589;-58
2023/03/30 13:11:24;;;;;;;13.73;3.07;;;17.50;99.90;;;;;;5095758;28;20242;-58